sensor_id;sensor_type;location;lat;lon;timestamp;P1;durP1;ratioP1;P2;durP2;ratioP2
52650;SDS011;38537;47.226;39.702;2023-02-28T00:01:32;17.95;;;12.80;;
52650;SDS011;38537;47.226;39.702;2023-02-28T00:04:01;18.20;;;13.48;;
52650;SDS011;38537;47.226;39.702;2023-02-28T00:06:30;17.60;;;12.45;;
52650;SDS011;38537;47.226;39.702;2023-02-28T00:08:57;20.42;;;13.70;;
52650;SDS011;38537;47.226;39.702;2023-02-28T00:11:24;25.55;;;14.55;;
52650;SDS011;38537;47.226;39.702;2023-02-28T00:13:52;26.38;;;18.25;;
52650;SDS011;38537;47.226;39.702;2023-02-28T00:16:20;24.63;;;16.08;;
52650;SDS011;38537;47.226;39.702;2023-02-28T00:18:49;25.20;;;17.40;;
52650;SDS011;38537;47.226;39.702;2023-02-28T00:21:17;23.20;;;17.60;;
52650;SDS011;38537;47.226;39.702;2023-02-28T00:23:45;19.45;;;13.98;;
52650;SDS011;38537;47.226;39.702;2023-02-28T00:26:15;19.23;;;13.43;;
52650;SDS011;38537;47.226;39.702;2023-02-28T00:28:44;19.38;;;14.50;;
52650;SDS011;38537;47.226;39.702;2023-02-28T00:31:13;20.85;;;13.88;;
52650;SDS011;38537;47.226;39.702;2023-02-28T00:33:41;20.67;;;14.93;;
52650;SDS011;38537;47.226;39.702;2023-02-28T00:36:09;19.77;;;15.07;;
52650;SDS011;38537;47.226;39.702;2023-02-28T00:38:37;26.52;;;17.58;;
52650;SDS011;38537;47.226;39.702;2023-02-28T00:41:06;22.15;;;16.55;;
52650;SDS011;38537;47.226;39.702;2023-02-28T00:43:34;23.35;;;16.33;;
52650;SDS011;38537;47.226;39.702;2023-02-28T00:46:03;22.35;;;15.90;;
52650;SDS011;38537;47.226;39.702;2023-02-28T00:48:31;23.73;;;16.33;;
52650;SDS011;38537;47.226;39.702;2023-02-28T00:50:59;25.65;;;16.60;;
52650;SDS011;38537;47.226;39.702;2023-02-28T00:53:26;23.42;;;16.88;;
52650;SDS011;38537;47.226;39.702;2023-02-28T00:55:56;26.20;;;17.63;;
52650;SDS011;38537;47.226;39.702;2023-02-28T00:58:25;24.85;;;16.90;;
52650;SDS011;38537;47.226;39.702;2023-02-28T01:00:53;29.23;;;17.30;;
52650;SDS011;38537;47.226;39.702;2023-02-28T01:03:21;20.85;;;16.55;;
52650;SDS011;38537;47.226;39.702;2023-02-28T01:05:49;27.45;;;17.55;;
52650;SDS011;38537;47.226;39.702;2023-02-28T01:08:17;24.02;;;16.13;;
52650;SDS011;38537;47.226;39.702;2023-02-28T01:10:44;20.38;;;14.65;;
52650;SDS011;38537;47.226;39.702;2023-02-28T01:13:12;25.38;;;15.85;;
52650;SDS011;38537;47.226;39.702;2023-02-28T01:15:40;25.95;;;16.80;;
52650;SDS011;38537;47.226;39.702;2023-02-28T01:18:11;23.88;;;15.27;;
52650;SDS011;38537;47.226;39.702;2023-02-28T01:20:38;21.33;;;14.82;;
52650;SDS011;38537;47.226;39.702;2023-02-28T01:23:06;27.50;;;16.85;;
52650;SDS011;38537;47.226;39.702;2023-02-28T01:25:36;18.58;;;13.20;;
52650;SDS011;38537;47.226;39.702;2023-02-28T01:28:04;20.35;;;14.73;;
52650;SDS011;38537;47.226;39.702;2023-02-28T01:30:33;25.23;;;15.75;;
52650;SDS011;38537;47.226;39.702;2023-02-28T01:33:01;20.92;;;14.50;;
52650;SDS011;38537;47.226;39.702;2023-02-28T01:35:31;19.42;;;12.63;;
52650;SDS011;38537;47.226;39.702;2023-02-28T01:38:00;21.15;;;13.68;;
52650;SDS011;38537;47.226;39.702;2023-02-28T01:40:46;20.15;;;12.70;;
52650;SDS011;38537;47.226;39.702;2023-02-28T01:43:32;22.85;;;14.98;;
52650;SDS011;38537;47.226;39.702;2023-02-28T01:46:20;23.42;;;14.85;;
52650;SDS011;38537;47.226;39.702;2023-02-28T01:48:50;22.00;;;13.48;;
52650;SDS011;38537;47.226;39.702;2023-02-28T01:51:44;25.85;;;15.20;;
52650;SDS011;38537;47.226;39.702;2023-02-28T01:54:24;21.52;;;14.75;;
52650;SDS011;38537;47.226;39.702;2023-02-28T01:57:03;23.35;;;14.05;;
52650;SDS011;38537;47.226;39.702;2023-02-28T01:59:41;26.45;;;15.30;;
52650;SDS011;38537;47.226;39.702;2023-02-28T02:02:13;26.65;;;15.05;;
52650;SDS011;38537;47.226;39.702;2023-02-28T02:05:00;25.98;;;14.85;;
52650;SDS011;38537;47.226;39.702;2023-02-28T02:07:35;25.23;;;16.05;;
52650;SDS011;38537;47.226;39.702;2023-02-28T02:15:16;21.88;;;15.27;;
52650;SDS011;38537;47.226;39.702;2023-02-28T02:17:51;26.70;;;15.23;;
52650;SDS011;38537;47.226;39.702;2023-02-28T02:25:47;21.60;;;12.88;;
52650;SDS011;38537;47.226;39.702;2023-02-28T02:31:39;19.45;;;13.27;;
52650;SDS011;38537;47.226;39.702;2023-02-28T02:37:21;23.83;;;14.05;;
52650;SDS011;38537;47.226;39.702;2023-02-28T02:39:57;24.27;;;14.35;;
52650;SDS011;38537;47.226;39.702;2023-02-28T02:45:10;20.42;;;11.73;;
52650;SDS011;38537;47.226;39.702;2023-02-28T02:50:13;22.63;;;12.65;;
52650;SDS011;38537;47.226;39.702;2023-02-28T02:52:50;21.30;;;11.65;;
52650;SDS011;38537;47.226;39.702;2023-02-28T02:55:23;20.50;;;10.57;;
52650;SDS011;38537;47.226;39.702;2023-02-28T02:57:55;21.05;;;11.90;;
52650;SDS011;38537;47.226;39.702;2023-02-28T03:00:41;18.65;;;11.23;;
52650;SDS011;38537;47.226;39.702;2023-02-28T03:03:13;19.60;;;10.90;;
52650;SDS011;38537;47.226;39.702;2023-02-28T03:08:13;19.80;;;11.30;;
52650;SDS011;38537;47.226;39.702;2023-02-28T03:10:42;20.33;;;11.48;;
52650;SDS011;38537;47.226;39.702;2023-02-28T03:18:50;22.40;;;11.55;;
52650;SDS011;38537;47.226;39.702;2023-02-28T03:24:08;21.70;;;11.38;;
52650;SDS011;38537;47.226;39.702;2023-02-28T03:26:39;19.48;;;11.38;;
52650;SDS011;38537;47.226;39.702;2023-02-28T03:31:52;25.63;;;12.95;;
52650;SDS011;38537;47.226;39.702;2023-02-28T03:34:39;19.50;;;12.23;;
52650;SDS011;38537;47.226;39.702;2023-02-28T03:37:15;23.58;;;12.85;;
52650;SDS011;38537;47.226;39.702;2023-02-28T03:39:47;18.80;;;12.10;;
52650;SDS011;38537;47.226;39.702;2023-02-28T03:42:21;23.45;;;12.50;;
52650;SDS011;38537;47.226;39.702;2023-02-28T03:44:57;24.13;;;12.20;;
52650;SDS011;38537;47.226;39.702;2023-02-28T03:47:31;20.35;;;11.90;;
52650;SDS011;38537;47.226;39.702;2023-02-28T03:50:07;24.50;;;11.98;;
52650;SDS011;38537;47.226;39.702;2023-02-28T03:52:45;22.20;;;12.15;;
52650;SDS011;38537;47.226;39.702;2023-02-28T03:55:18;25.40;;;12.20;;
52650;SDS011;38537;47.226;39.702;2023-02-28T03:57:58;19.95;;;12.23;;
52650;SDS011;38537;47.226;39.702;2023-02-28T04:00:35;20.33;;;12.00;;
52650;SDS011;38537;47.226;39.702;2023-02-28T04:03:06;25.38;;;12.23;;
52650;SDS011;38537;47.226;39.702;2023-02-28T04:05:44;20.35;;;12.05;;
52650;SDS011;38537;47.226;39.702;2023-02-28T04:08:19;23.13;;;11.80;;
52650;SDS011;38537;47.226;39.702;2023-02-28T04:10:50;21.95;;;11.98;;
52650;SDS011;38537;47.226;39.702;2023-02-28T04:13:23;22.42;;;11.35;;
52650;SDS011;38537;47.226;39.702;2023-02-28T04:15:52;25.00;;;12.63;;
52650;SDS011;38537;47.226;39.702;2023-02-28T04:18:20;24.58;;;11.93;;
52650;SDS011;38537;47.226;39.702;2023-02-28T04:20:48;23.33;;;12.00;;
52650;SDS011;38537;47.226;39.702;2023-02-28T04:23:15;23.83;;;11.68;;
52650;SDS011;38537;47.226;39.702;2023-02-28T04:25:43;21.63;;;10.93;;
52650;SDS011;38537;47.226;39.702;2023-02-28T04:28:10;23.25;;;11.63;;
52650;SDS011;38537;47.226;39.702;2023-02-28T04:30:37;21.13;;;11.75;;
52650;SDS011;38537;47.226;39.702;2023-02-28T04:33:05;21.50;;;11.70;;
52650;SDS011;38537;47.226;39.702;2023-02-28T04:35:33;19.67;;;11.50;;
52650;SDS011;38537;47.226;39.702;2023-02-28T04:38:00;23.90;;;11.50;;
52650;SDS011;38537;47.226;39.702;2023-02-28T04:40:27;26.67;;;11.43;;
52650;SDS011;38537;47.226;39.702;2023-02-28T04:42:54;29.35;;;11.73;;
52650;SDS011;38537;47.226;39.702;2023-02-28T04:45:21;26.77;;;11.95;;
52650;SDS011;38537;47.226;39.702;2023-02-28T04:47:48;21.67;;;11.45;;
52650;SDS011;38537;47.226;39.702;2023-02-28T04:50:16;26.15;;;11.88;;
52650;SDS011;38537;47.226;39.702;2023-02-28T04:52:43;21.45;;;10.43;;
52650;SDS011;38537;47.226;39.702;2023-02-28T04:55:10;20.85;;;10.93;;
52650;SDS011;38537;47.226;39.702;2023-02-28T04:57:39;19.58;;;10.23;;
52650;SDS011;38537;47.226;39.702;2023-02-28T05:00:09;24.20;;;11.30;;
52650;SDS011;38537;47.226;39.702;2023-02-28T05:02:38;22.50;;;11.77;;
52650;SDS011;38537;47.226;39.702;2023-02-28T05:05:06;23.48;;;12.02;;
52650;SDS011;38537;47.226;39.702;2023-02-28T05:07:33;19.95;;;12.05;;
52650;SDS011;38537;47.226;39.702;2023-02-28T05:10:01;23.45;;;11.20;;
52650;SDS011;38537;47.226;39.702;2023-02-28T05:12:28;21.05;;;10.18;;
52650;SDS011;38537;47.226;39.702;2023-02-28T05:14:55;20.00;;;10.45;;
52650;SDS011;38537;47.226;39.702;2023-02-28T05:17:23;19.23;;;11.55;;
52650;SDS011;38537;47.226;39.702;2023-02-28T05:19:50;27.42;;;11.43;;
52650;SDS011;38537;47.226;39.702;2023-02-28T05:22:17;22.55;;;11.88;;
52650;SDS011;38537;47.226;39.702;2023-02-28T05:24:44;21.58;;;11.88;;
52650;SDS011;38537;47.226;39.702;2023-02-28T05:27:12;24.13;;;11.85;;
52650;SDS011;38537;47.226;39.702;2023-02-28T05:29:39;22.88;;;12.20;;
52650;SDS011;38537;47.226;39.702;2023-02-28T05:32:13;20.75;;;11.57;;
52650;SDS011;38537;47.226;39.702;2023-02-28T05:34:40;23.40;;;11.60;;
52650;SDS011;38537;47.226;39.702;2023-02-28T05:37:10;22.70;;;11.90;;
52650;SDS011;38537;47.226;39.702;2023-02-28T05:39:39;22.17;;;11.90;;
52650;SDS011;38537;47.226;39.702;2023-02-28T05:42:07;23.77;;;12.40;;
52650;SDS011;38537;47.226;39.702;2023-02-28T05:44:35;27.27;;;11.95;;
52650;SDS011;38537;47.226;39.702;2023-02-28T05:47:02;22.83;;;12.23;;
52650;SDS011;38537;47.226;39.702;2023-02-28T05:49:30;23.50;;;12.00;;
52650;SDS011;38537;47.226;39.702;2023-02-28T05:51:57;19.90;;;11.68;;
52650;SDS011;38537;47.226;39.702;2023-02-28T05:54:24;21.08;;;11.65;;
52650;SDS011;38537;47.226;39.702;2023-02-28T05:56:52;25.75;;;12.70;;
52650;SDS011;38537;47.226;39.702;2023-02-28T05:59:19;24.42;;;12.18;;
52650;SDS011;38537;47.226;39.702;2023-02-28T06:01:46;26.00;;;12.15;;
52650;SDS011;38537;47.226;39.702;2023-02-28T06:04:16;23.98;;;12.38;;
52650;SDS011;38537;47.226;39.702;2023-02-28T06:06:57;28.05;;;12.50;;
52650;SDS011;38537;47.226;39.702;2023-02-28T06:09:24;31.95;;;13.38;;
52650;SDS011;38537;47.226;39.702;2023-02-28T06:11:51;23.80;;;13.35;;
52650;SDS011;38537;47.226;39.702;2023-02-28T06:14:19;29.20;;;13.60;;
52650;SDS011;38537;47.226;39.702;2023-02-28T06:16:47;30.20;;;13.45;;
52650;SDS011;38537;47.226;39.702;2023-02-28T06:19:14;24.23;;;12.98;;
52650;SDS011;38537;47.226;39.702;2023-02-28T06:21:42;29.65;;;12.85;;
52650;SDS011;38537;47.226;39.702;2023-02-28T06:24:10;26.73;;;13.38;;
52650;SDS011;38537;47.226;39.702;2023-02-28T06:26:37;25.83;;;13.50;;
52650;SDS011;38537;47.226;39.702;2023-02-28T06:29:06;27.15;;;13.45;;
52650;SDS011;38537;47.226;39.702;2023-02-28T06:31:33;27.45;;;14.55;;
52650;SDS011;38537;47.226;39.702;2023-02-28T06:34:01;23.92;;;12.75;;
52650;SDS011;38537;47.226;39.702;2023-02-28T06:36:28;31.90;;;13.02;;
52650;SDS011;38537;47.226;39.702;2023-02-28T06:38:55;24.65;;;13.35;;
52650;SDS011;38537;47.226;39.702;2023-02-28T06:41:24;27.35;;;12.52;;
52650;SDS011;38537;47.226;39.702;2023-02-28T06:43:53;23.23;;;13.20;;
52650;SDS011;38537;47.226;39.702;2023-02-28T06:46:21;24.65;;;11.48;;
52650;SDS011;38537;47.226;39.702;2023-02-28T06:48:48;25.52;;;12.55;;
52650;SDS011;38537;47.226;39.702;2023-02-28T06:51:17;26.42;;;14.00;;
52650;SDS011;38537;47.226;39.702;2023-02-28T06:53:46;23.25;;;12.27;;
52650;SDS011;38537;47.226;39.702;2023-02-28T06:56:15;28.88;;;11.70;;
52650;SDS011;38537;47.226;39.702;2023-02-28T06:58:47;18.02;;;10.95;;
52650;SDS011;38537;47.226;39.702;2023-02-28T07:01:15;25.25;;;11.57;;
52650;SDS011;38537;47.226;39.702;2023-02-28T07:03:43;21.73;;;11.57;;
52650;SDS011;38537;47.226;39.702;2023-02-28T07:06:10;23.98;;;12.05;;
52650;SDS011;38537;47.226;39.702;2023-02-28T07:08:37;30.73;;;13.95;;
52650;SDS011;38537;47.226;39.702;2023-02-28T07:11:06;26.23;;;12.60;;
52650;SDS011;38537;47.226;39.702;2023-02-28T07:13:34;24.10;;;12.70;;
52650;SDS011;38537;47.226;39.702;2023-02-28T07:16:03;28.50;;;13.05;;
52650;SDS011;38537;47.226;39.702;2023-02-28T07:18:31;32.47;;;14.07;;
52650;SDS011;38537;47.226;39.702;2023-02-28T07:21:01;30.50;;;13.85;;
52650;SDS011;38537;47.226;39.702;2023-02-28T07:23:29;26.55;;;13.77;;
52650;SDS011;38537;47.226;39.702;2023-02-28T07:25:56;24.65;;;13.23;;
52650;SDS011;38537;47.226;39.702;2023-02-28T07:28:24;29.48;;;14.00;;
52650;SDS011;38537;47.226;39.702;2023-02-28T07:30:51;27.23;;;13.48;;
52650;SDS011;38537;47.226;39.702;2023-02-28T07:33:19;32.92;;;14.48;;
52650;SDS011;38537;47.226;39.702;2023-02-28T07:35:46;29.13;;;14.73;;
52650;SDS011;38537;47.226;39.702;2023-02-28T07:38:14;33.97;;;15.43;;
52650;SDS011;38537;47.226;39.702;2023-02-28T07:40:41;29.55;;;15.13;;
52650;SDS011;38537;47.226;39.702;2023-02-28T07:43:08;34.88;;;15.77;;
52650;SDS011;38537;47.226;39.702;2023-02-28T07:45:36;30.13;;;14.75;;
52650;SDS011;38537;47.226;39.702;2023-02-28T07:48:06;32.33;;;16.00;;
52650;SDS011;38537;47.226;39.702;2023-02-28T07:50:33;34.42;;;15.85;;
52650;SDS011;38537;47.226;39.702;2023-02-28T07:53:01;30.15;;;14.75;;
52650;SDS011;38537;47.226;39.702;2023-02-28T07:55:30;30.73;;;14.80;;
52650;SDS011;38537;47.226;39.702;2023-02-28T07:57:57;30.15;;;17.08;;
52650;SDS011;38537;47.226;39.702;2023-02-28T08:00:25;33.80;;;17.85;;
52650;SDS011;38537;47.226;39.702;2023-02-28T08:02:52;34.58;;;17.95;;
52650;SDS011;38537;47.226;39.702;2023-02-28T08:05:19;34.05;;;18.08;;
52650;SDS011;38537;47.226;39.702;2023-02-28T08:07:48;35.97;;;18.27;;
52650;SDS011;38537;47.226;39.702;2023-02-28T08:10:16;38.75;;;17.83;;
52650;SDS011;38537;47.226;39.702;2023-02-28T08:12:43;41.28;;;20.85;;
52650;SDS011;38537;47.226;39.702;2023-02-28T08:15:10;37.30;;;20.08;;
52650;SDS011;38537;47.226;39.702;2023-02-28T08:17:38;35.55;;;20.55;;
52650;SDS011;38537;47.226;39.702;2023-02-28T08:20:06;34.55;;;20.77;;
52650;SDS011;38537;47.226;39.702;2023-02-28T08:22:34;35.20;;;20.88;;
52650;SDS011;38537;47.226;39.702;2023-02-28T08:25:01;37.08;;;21.45;;
52650;SDS011;38537;47.226;39.702;2023-02-28T08:27:29;38.80;;;21.17;;
52650;SDS011;38537;47.226;39.702;2023-02-28T08:29:56;39.03;;;22.35;;
52650;SDS011;38537;47.226;39.702;2023-02-28T08:32:23;46.53;;;22.40;;
52650;SDS011;38537;47.226;39.702;2023-02-28T08:34:56;42.17;;;21.80;;
52650;SDS011;38537;47.226;39.702;2023-02-28T08:37:24;43.00;;;23.67;;
52650;SDS011;38537;47.226;39.702;2023-02-28T08:39:52;42.70;;;21.80;;
52650;SDS011;38537;47.226;39.702;2023-02-28T08:42:22;40.47;;;21.63;;
52650;SDS011;38537;47.226;39.702;2023-02-28T08:44:50;42.55;;;23.15;;
52650;SDS011;38537;47.226;39.702;2023-02-28T08:47:18;42.00;;;20.58;;
52650;SDS011;38537;47.226;39.702;2023-02-28T08:49:45;45.58;;;19.98;;
52650;SDS011;38537;47.226;39.702;2023-02-28T08:52:12;43.50;;;22.60;;
52650;SDS011;38537;47.226;39.702;2023-02-28T08:54:40;40.47;;;21.90;;
52650;SDS011;38537;47.226;39.702;2023-02-28T08:57:07;45.97;;;21.45;;
52650;SDS011;38537;47.226;39.702;2023-02-28T08:59:35;42.30;;;23.13;;
52650;SDS011;38537;47.226;39.702;2023-02-28T09:02:02;39.13;;;20.83;;
52650;SDS011;38537;47.226;39.702;2023-02-28T09:04:29;39.15;;;20.70;;
52650;SDS011;38537;47.226;39.702;2023-02-28T09:07:00;41.67;;;19.90;;
52650;SDS011;38537;47.226;39.702;2023-02-28T09:09:27;41.42;;;19.27;;
52650;SDS011;38537;47.226;39.702;2023-02-28T09:11:57;37.55;;;19.27;;
52650;SDS011;38537;47.226;39.702;2023-02-28T09:14:25;37.63;;;18.83;;
52650;SDS011;38537;47.226;39.702;2023-02-28T09:16:52;33.13;;;18.80;;
52650;SDS011;38537;47.226;39.702;2023-02-28T09:19:19;33.08;;;19.00;;
52650;SDS011;38537;47.226;39.702;2023-02-28T09:21:47;30.38;;;18.63;;
52650;SDS011;38537;47.226;39.702;2023-02-28T09:24:14;30.13;;;18.52;;
52650;SDS011;38537;47.226;39.702;2023-02-28T09:26:42;31.80;;;18.25;;
52650;SDS011;38537;47.226;39.702;2023-02-28T09:29:29;27.73;;;17.77;;
52650;SDS011;38537;47.226;39.702;2023-02-28T09:31:57;33.75;;;17.42;;
52650;SDS011;38537;47.226;39.702;2023-02-28T09:34:28;31.67;;;19.10;;
52650;SDS011;38537;47.226;39.702;2023-02-28T09:36:57;33.50;;;18.35;;
52650;SDS011;38537;47.226;39.702;2023-02-28T09:39:24;29.08;;;18.17;;
52650;SDS011;38537;47.226;39.702;2023-02-28T09:41:53;33.22;;;19.75;;
52650;SDS011;38537;47.226;39.702;2023-02-28T09:44:35;30.13;;;17.95;;
52650;SDS011;38537;47.226;39.702;2023-02-28T09:49:48;32.95;;;19.17;;
52650;SDS011;38537;47.226;39.702;2023-02-28T09:52:21;38.45;;;21.25;;
52650;SDS011;38537;47.226;39.702;2023-02-28T09:55:00;41.63;;;21.35;;
52650;SDS011;38537;47.226;39.702;2023-02-28T09:57:44;50.15;;;25.10;;
52650;SDS011;38537;47.226;39.702;2023-02-28T10:03:06;57.45;;;28.33;;
52650;SDS011;38537;47.226;39.702;2023-02-28T10:06:12;74.87;;;28.80;;
52650;SDS011;38537;47.226;39.702;2023-02-28T10:08:47;58.92;;;27.40;;
52650;SDS011;38537;47.226;39.702;2023-02-28T10:11:23;66.60;;;29.42;;
52650;SDS011;38537;47.226;39.702;2023-02-28T10:13:58;64.63;;;27.80;;
52650;SDS011;38537;47.226;39.702;2023-02-28T10:22:19;82.10;;;29.08;;
52650;SDS011;38537;47.226;39.702;2023-02-28T10:24:51;80.30;;;29.27;;
52650;SDS011;38537;47.226;39.702;2023-02-28T10:27:21;75.00;;;30.48;;
52650;SDS011;38537;47.226;39.702;2023-02-28T10:29:54;68.40;;;28.48;;
52650;SDS011;38537;47.226;39.702;2023-02-28T10:32:24;71.30;;;28.33;;
52650;SDS011;38537;47.226;39.702;2023-02-28T10:37:28;70.97;;;28.67;;
52650;SDS011;38537;47.226;39.702;2023-02-28T10:40:03;83.10;;;27.80;;
52650;SDS011;38537;47.226;39.702;2023-02-28T10:42:33;72.70;;;27.52;;
52650;SDS011;38537;47.226;39.702;2023-02-28T10:48:00;58.75;;;25.98;;
52650;SDS011;38537;47.226;39.702;2023-02-28T10:58:33;56.95;;;22.25;;
52650;SDS011;38537;47.226;39.702;2023-02-28T11:04:38;51.08;;;22.27;;
52650;SDS011;38537;47.226;39.702;2023-02-28T11:07:27;54.05;;;22.83;;
52650;SDS011;38537;47.226;39.702;2023-02-28T11:10:22;51.05;;;21.80;;
52650;SDS011;38537;47.226;39.702;2023-02-28T11:12:56;51.13;;;21.98;;
52650;SDS011;38537;47.226;39.702;2023-02-28T11:15:27;48.40;;;21.48;;
52650;SDS011;38537;47.226;39.702;2023-02-28T11:18:01;50.20;;;20.95;;
52650;SDS011;38537;47.226;39.702;2023-02-28T11:20:44;45.03;;;19.88;;
52650;SDS011;38537;47.226;39.702;2023-02-28T11:23:16;48.95;;;20.48;;
52650;SDS011;38537;47.226;39.702;2023-02-28T11:25:47;45.83;;;20.10;;
52650;SDS011;38537;47.226;39.702;2023-02-28T11:28:26;47.08;;;19.08;;
52650;SDS011;38537;47.226;39.702;2023-02-28T11:34:10;41.15;;;17.42;;
52650;SDS011;38537;47.226;39.702;2023-02-28T11:36:49;45.28;;;20.50;;
52650;SDS011;38537;47.226;39.702;2023-02-28T11:39:20;43.63;;;19.90;;
52650;SDS011;38537;47.226;39.702;2023-02-28T11:45:02;43.13;;;18.05;;
52650;SDS011;38537;47.226;39.702;2023-02-28T11:47:54;42.58;;;18.38;;
52650;SDS011;38537;47.226;39.702;2023-02-28T11:50:46;45.47;;;18.75;;
52650;SDS011;38537;47.226;39.702;2023-02-28T11:53:53;44.60;;;18.50;;
52650;SDS011;38537;47.226;39.702;2023-02-28T11:56:41;43.33;;;18.20;;
52650;SDS011;38537;47.226;39.702;2023-02-28T12:11:03;31.67;;;14.02;;
52650;SDS011;38537;47.226;39.702;2023-02-28T12:16:22;40.15;;;14.98;;
52650;SDS011;38537;47.226;39.702;2023-02-28T12:19:44;33.53;;;14.52;;
52650;SDS011;38537;47.226;39.702;2023-02-28T12:22:26;30.67;;;14.95;;
52650;SDS011;38537;47.226;39.702;2023-02-28T12:25:19;38.85;;;14.93;;
52650;SDS011;38537;47.226;39.702;2023-02-28T12:27:56;34.33;;;15.43;;
52650;SDS011;38537;47.226;39.702;2023-02-28T12:30:25;34.53;;;15.32;;
52650;SDS011;38537;47.226;39.702;2023-02-28T12:32:56;34.22;;;16.00;;
52650;SDS011;38537;47.226;39.702;2023-02-28T12:35:37;30.90;;;16.10;;
52650;SDS011;38537;47.226;39.702;2023-02-28T12:38:19;35.20;;;16.55;;
52650;SDS011;38537;47.226;39.702;2023-02-28T12:40:52;29.42;;;15.90;;
52650;SDS011;38537;47.226;39.702;2023-02-28T12:43:32;29.90;;;14.38;;
52650;SDS011;38537;47.226;39.702;2023-02-28T12:46:20;29.13;;;13.95;;
52650;SDS011;38537;47.226;39.702;2023-02-28T12:48:58;27.95;;;13.45;;
52650;SDS011;38537;47.226;39.702;2023-02-28T12:51:28;24.20;;;12.05;;
52650;SDS011;38537;47.226;39.702;2023-02-28T13:02:18;24.63;;;11.00;;
52650;SDS011;38537;47.226;39.702;2023-02-28T13:11:05;25.85;;;12.45;;
52650;SDS011;38537;47.226;39.702;2023-02-28T13:13:45;28.83;;;12.73;;
52650;SDS011;38537;47.226;39.702;2023-02-28T13:16:12;22.88;;;11.52;;
52650;SDS011;38537;47.226;39.702;2023-02-28T13:18:42;21.73;;;10.80;;
52650;SDS011;38537;47.226;39.702;2023-02-28T13:21:27;16.63;;;9.30;;
52650;SDS011;38537;47.226;39.702;2023-02-28T13:23:59;19.38;;;11.10;;
52650;SDS011;38537;47.226;39.702;2023-02-28T13:34:35;20.30;;;10.75;;
52650;SDS011;38537;47.226;39.702;2023-02-28T13:39:49;19.65;;;10.82;;
52650;SDS011;38537;47.226;39.702;2023-02-28T13:55:25;24.90;;;13.73;;
52650;SDS011;38537;47.226;39.702;2023-02-28T13:58:10;24.38;;;12.95;;
52650;SDS011;38537;47.226;39.702;2023-02-28T14:03:26;18.45;;;11.40;;
52650;SDS011;38537;47.226;39.702;2023-02-28T14:11:31;15.48;;;9.40;;
52650;SDS011;38537;47.226;39.702;2023-02-28T14:14:04;14.30;;;9.15;;
52650;SDS011;38537;47.226;39.702;2023-02-28T14:16:40;15.80;;;10.02;;
52650;SDS011;38537;47.226;39.702;2023-02-28T14:19:15;18.05;;;10.93;;
52650;SDS011;38537;47.226;39.702;2023-02-28T14:22:12;15.05;;;10.10;;
52650;SDS011;38537;47.226;39.702;2023-02-28T14:25:05;14.77;;;9.95;;
52650;SDS011;38537;47.226;39.702;2023-02-28T14:28:04;19.38;;;11.52;;
52650;SDS011;38537;47.226;39.702;2023-02-28T14:30:52;19.08;;;11.23;;
52650;SDS011;38537;47.226;39.702;2023-02-28T14:33:35;18.17;;;12.23;;
52650;SDS011;38537;47.226;39.702;2023-02-28T14:36:18;17.70;;;11.65;;
52650;SDS011;38537;47.226;39.702;2023-02-28T14:38:51;18.20;;;12.50;;
52650;SDS011;38537;47.226;39.702;2023-02-28T14:41:28;20.63;;;13.15;;
52650;SDS011;38537;47.226;39.702;2023-02-28T14:43:59;19.13;;;12.65;;
52650;SDS011;38537;47.226;39.702;2023-02-28T14:46:31;18.92;;;13.18;;
52650;SDS011;38537;47.226;39.702;2023-02-28T14:49:07;22.58;;;13.65;;
52650;SDS011;38537;47.226;39.702;2023-02-28T14:51:46;19.17;;;12.70;;
52650;SDS011;38537;47.226;39.702;2023-02-28T14:54:18;21.73;;;12.82;;
52650;SDS011;38537;47.226;39.702;2023-02-28T14:56:50;16.75;;;11.70;;
52650;SDS011;38537;47.226;39.702;2023-02-28T14:59:23;16.40;;;12.27;;
52650;SDS011;38537;47.226;39.702;2023-02-28T15:04:58;18.95;;;12.32;;
52650;SDS011;38537;47.226;39.702;2023-02-28T15:07:28;17.73;;;11.38;;
52650;SDS011;38537;47.226;39.702;2023-02-28T15:12:39;14.35;;;10.30;;
52650;SDS011;38537;47.226;39.702;2023-02-28T15:15:14;15.65;;;11.05;;
52650;SDS011;38537;47.226;39.702;2023-02-28T15:17:53;14.45;;;10.45;;
52650;SDS011;38537;47.226;39.702;2023-02-28T15:20:24;13.68;;;10.80;;
52650;SDS011;38537;47.226;39.702;2023-02-28T15:22:53;15.38;;;10.70;;
52650;SDS011;38537;47.226;39.702;2023-02-28T15:25:23;14.10;;;10.45;;
52650;SDS011;38537;47.226;39.702;2023-02-28T15:27:53;14.65;;;10.20;;
52650;SDS011;38537;47.226;39.702;2023-02-28T15:30:28;15.30;;;10.48;;
52650;SDS011;38537;47.226;39.702;2023-02-28T15:36:05;16.15;;;10.13;;
52650;SDS011;38537;47.226;39.702;2023-02-28T15:38:40;13.48;;;10.35;;
52650;SDS011;38537;47.226;39.702;2023-02-28T15:44:16;13.52;;;9.80;;
52650;SDS011;38537;47.226;39.702;2023-02-28T15:46:55;13.90;;;9.68;;
52650;SDS011;38537;47.226;39.702;2023-02-28T15:49:28;14.15;;;9.73;;
52650;SDS011;38537;47.226;39.702;2023-02-28T15:52:12;13.05;;;9.38;;
52650;SDS011;38537;47.226;39.702;2023-02-28T15:54:43;14.98;;;10.10;;
52650;SDS011;38537;47.226;39.702;2023-02-28T15:57:20;18.50;;;9.82;;
52650;SDS011;38537;47.226;39.702;2023-02-28T15:59:54;15.23;;;10.60;;
52650;SDS011;38537;47.226;39.702;2023-02-28T16:07:33;19.50;;;10.73;;
52650;SDS011;38537;47.226;39.702;2023-02-28T16:10:01;16.38;;;11.77;;
52650;SDS011;38537;47.226;39.702;2023-02-28T16:12:30;17.25;;;10.95;;
52650;SDS011;38537;47.226;39.702;2023-02-28T16:15:00;16.27;;;10.60;;
52650;SDS011;38537;47.226;39.702;2023-02-28T16:17:33;16.67;;;10.27;;
52650;SDS011;38537;47.226;39.702;2023-02-28T16:20:05;16.30;;;10.65;;
52650;SDS011;38537;47.226;39.702;2023-02-28T16:22:39;14.15;;;10.20;;
52650;SDS011;38537;47.226;39.702;2023-02-28T16:25:15;14.45;;;10.30;;
52650;SDS011;38537;47.226;39.702;2023-02-28T16:27:47;17.55;;;9.93;;
52650;SDS011;38537;47.226;39.702;2023-02-28T16:30:19;14.65;;;10.10;;
52650;SDS011;38537;47.226;39.702;2023-02-28T16:32:52;14.50;;;10.50;;
52650;SDS011;38537;47.226;39.702;2023-02-28T16:35:20;17.45;;;11.38;;
52650;SDS011;38537;47.226;39.702;2023-02-28T16:37:50;14.98;;;10.18;;
52650;SDS011;38537;47.226;39.702;2023-02-28T16:40:19;16.75;;;11.43;;
52650;SDS011;38537;47.226;39.702;2023-02-28T16:42:50;17.88;;;10.88;;
52650;SDS011;38537;47.226;39.702;2023-02-28T16:45:28;14.13;;;10.93;;
52650;SDS011;38537;47.226;39.702;2023-02-28T16:47:55;17.02;;;12.13;;
52650;SDS011;38537;47.226;39.702;2023-02-28T16:50:25;20.40;;;12.50;;
52650;SDS011;38537;47.226;39.702;2023-02-28T16:52:54;17.13;;;12.30;;
52650;SDS011;38537;47.226;39.702;2023-02-28T16:55:22;17.33;;;12.35;;
52650;SDS011;38537;47.226;39.702;2023-02-28T16:57:52;20.50;;;12.98;;
52650;SDS011;38537;47.226;39.702;2023-02-28T17:00:27;19.83;;;13.13;;
52650;SDS011;38537;47.226;39.702;2023-02-28T17:02:56;22.63;;;12.70;;
52650;SDS011;38537;47.226;39.702;2023-02-28T17:05:24;22.20;;;15.75;;